Flugplatz Kempten-Durach

Für EDMK sind keine METAR/TAF Berichte vorhanden.
Es werden die Flugwettermeldungen vom Flugplatz Memmingen Allgau in 33 km Entfernung angezeigt.

Bericht für EDJA

vom 31.05. um 10:50 UTC

Wind 6 kt aus 60°

Sichtweite 10 km oder mehr

aufgelockert bewölkt in 5500 ft

Temperatur 15.0°C

Taupunkt 3.0°C

Luftfeuchtigkeit 44%

Luftdruck 1019 hPa

EDJA 311050Z 06006KT 340V100 9999 SCT055 15/03 Q1019

Prognose für EDJA

vom 31.05. um 08:00 UTC

Zwischen 09:00 UTC und 18:00 UTC

Wind 8 kt aus 50°

Sichtweite 10 km oder mehr

keine signifikanten Wettererscheinungen

keine Wolken

TAF EDJA 310800Z 3109/3118 05008KT CAVOK
Impressum